Time;durP1;ratioP1;P1;durP2;ratioP2;P2;SDS_P1;SDS_P2;PMS_P1;PMS_P2;Temp;Humidity;BMP_temperature;BMP_pressure;BME280_temperature;BME280_humidity;BME280_pressure;Samples;Min_cycle;Max_cycle;Signal;HPM_P1;HPM_P2
2022/11/06 00:03:45;;;;;;;4.43;2.38;;;2.40;99.90;;;;;;20991418;28;20025;-76
2022/11/06 00:13:51;;;;;;;6.53;2.72;;;2.50;99.90;;;;;;20915375;28;20021;-78
2022/11/06 00:23:53;;;;;;;7.13;2.40;;;2.70;99.90;;;;;;20915350;28;20037;-77
2022/11/06 00:33:56;;;;;;;10.43;4.22;;;2.60;99.90;;;;;;20915572;28;20025;-77
2022/11/06 00:43:59;;;;;;;7.85;3.25;;;2.50;99.90;;;;;;20914484;28;20650;-77
2022/11/06 00:54:04;;;;;;;24.65;7.45;;;2.40;99.90;;;;;;20920623;28;20040;-78
2022/11/06 01:04:11;;;;;;;13.35;6.25;;;2.40;99.90;;;;;;20927918;28;20479;-76
2022/11/06 01:14:14;;;;;;;228.57;19.17;;;2.50;99.90;;;;;;20929979;28;20033;-77
2022/11/06 01:24:18;;;;;;;225.27;15.48;;;2.50;99.90;;;;;;20926338;28;20091;-78
2022/11/06 01:34:18;;;;;;;89.43;10.88;;;2.60;99.90;;;;;;20925632;28;20524;-77
2022/11/06 01:44:34;;;;;;;85.40;12.00;;;2.60;99.90;;;;;;20923579;28;20029;-78
2022/11/06 01:54:38;;;;;;;230.93;14.70;;;2.60;99.90;;;;;;20922167;28;20048;-77
2022/11/06 02:04:45;;;;;;;376.85;21.30;;;2.60;99.90;;;;;;20914368;28;20032;-76
2022/11/06 02:15:12;;;;;;;110.30;11.55;;;2.80;99.90;;;;;;20913375;28;20407;-76
2022/11/06 02:25:42;;;;;;;93.22;10.93;;;2.90;99.90;;;;;;20912446;28;20044;-77
2022/11/06 02:35:49;;;;;;;212.05;14.93;;;2.90;99.90;;;;;;20887856;28;20503;-76
2022/11/06 02:45:56;;;;;;;114.10;11.18;;;3.00;99.90;;;;;;20911460;28;20041;-76
2022/11/06 02:56:03;;;;;;;178.32;16.20;;;3.00;99.90;;;;;;20827395;28;20041;-76
2022/11/06 03:06:12;;;;;;;399.30;24.85;;;2.90;99.90;;;;;;20827884;28;20490;-76
2022/11/06 03:16:41;;;;;;;108.72;12.35;;;2.70;99.90;;;;;;20896355;28;20086;-76
2022/11/06 03:26:47;;;;;;;18.40;8.27;;;2.70;99.90;;;;;;20866952;28;20387;-76
2022/11/06 03:36:55;;;;;;;13.05;5.53;;;2.80;99.90;;;;;;20866451;28;20030;-77
2022/11/06 03:47:10;;;;;;;17.27;6.32;;;2.80;99.90;;;;;;20884209;28;20029;-76
2022/11/06 03:57:43;;;;;;;19.45;6.78;;;2.90;99.90;;;;;;20889702;28;20036;-77
2022/11/06 04:13:56;;;;;;;58.67;11.45;;;3.10;99.90;;;;;;20883718;28;20057;-76
2022/11/06 04:18:17;;;;;;;28.63;8.65;;;3.20;99.90;;;;;;20906534;28;20040;-76
2022/11/06 04:28:56;;;;;;;29.63;8.37;;;3.10;99.90;;;;;;20910331;28;20090;-76
2022/11/06 04:39:04;;;;;;;28.83;9.07;;;3.10;99.90;;;;;;20919491;28;20094;-76
2022/11/06 04:49:05;;;;;;;18.70;6.15;;;3.00;99.90;;;;;;20918115;28;20052;-76
2022/11/06 04:59:10;;;;;;;21.15;5.82;;;2.90;99.90;;;;;;20886164;28;20038;-76
2022/11/06 05:09:11;;;;;;;30.85;7.43;;;3.00;99.90;;;;;;20883688;28;20059;-77
2022/11/06 05:19:11;;;;;;;24.83;6.90;;;3.30;99.90;;;;;;20903097;28;20021;-77
2022/11/06 05:29:13;;;;;;;25.92;6.82;;;3.30;99.90;;;;;;20918063;28;20044;-77
2022/11/06 05:39:13;;;;;;;36.97;7.35;;;3.40;99.90;;;;;;20915304;28;20463;-77
2022/11/06 05:49:14;;;;;;;28.13;7.40;;;3.50;99.90;;;;;;20916645;28;20033;-77
2022/11/06 05:59:15;;;;;;;30.75;6.70;;;3.50;99.90;;;;;;20915658;28;20120;-77
2022/11/06 06:09:16;;;;;;;25.92;8.50;;;3.40;99.90;;;;;;20869004;28;20036;-77
2022/11/06 06:19:16;;;;;;;30.77;7.75;;;3.50;99.90;;;;;;20881678;28;20039;-76
2022/11/06 06:29:17;;;;;;;37.05;9.70;;;3.50;99.90;;;;;;20872760;28;20060;-77
2022/11/06 06:39:19;;;;;;;39.83;8.77;;;3.50;99.90;;;;;;20898801;28;20054;-76
2022/11/06 06:49:19;;;;;;;29.55;8.80;;;3.50;99.90;;;;;;20911563;28;20483;-76
2022/11/06 06:59:20;;;;;;;35.42;8.05;;;3.60;99.90;;;;;;20910584;28;20055;-77
2022/11/06 07:09:22;;;;;;;30.40;8.20;;;3.80;99.90;;;;;;20911204;28;20119;-77
2022/11/06 07:19:23;;;;;;;32.78;9.95;;;3.70;99.90;;;;;;20908027;28;20035;-77
2022/11/06 07:29:24;;;;;;;39.33;10.95;;;4.00;99.90;;;;;;20888854;28;20116;-77
2022/11/06 07:39:25;;;;;;;36.08;13.00;;;4.30;99.90;;;;;;20869896;28;20024;-78
2022/11/06 07:49:26;;;;;;;34.40;11.43;;;4.50;99.90;;;;;;20870747;28;20029;-78
2022/11/06 07:59:26;;;;;;;37.78;10.50;;;4.50;99.90;;;;;;20865585;28;20033;-78
2022/11/06 08:09:27;;;;;;;33.25;10.48;;;4.60;99.90;;;;;;20887851;28;20454;-79
2022/11/06 08:19:28;;;;;;;31.98;12.68;;;4.70;99.90;;;;;;20845407;28;20155;-77
2022/11/06 08:29:29;;;;;;;32.17;12.05;;;4.80;99.90;;;;;;20839446;28;20518;-77
2022/11/06 08:39:29;;;;;;;;;;;4.90;99.90;;;;;;20839284;28;20060;-77
2022/11/06 08:49:30;;;;;;;24.80;8.80;;;4.90;99.90;;;;;;20839579;28;19916;-77
2022/11/06 08:59:31;;;;;;;;;;;4.90;99.90;;;;;;20844040;28;20116;-78
2022/11/06 09:09:32;;;;;;;23.20;7.15;;;5.20;99.90;;;;;;20841598;28;19939;-77
2022/11/06 09:19:33;;;;;;;;;;;5.20;99.90;;;;;;20847404;28;20029;-77
2022/11/06 09:29:34;;;;;;;21.17;7.67;;;5.40;99.90;;;;;;20834875;28;19909;-77
2022/11/06 09:39:34;;;;;;;;;;;5.60;99.90;;;;;;20837885;28;20029;-77
2022/11/06 09:49:57;;;;;;;23.10;9.27;;;5.70;99.90;;;;;;20983516;28;19973;-76
2022/11/06 10:00:00;;;;;;;24.67;10.63;;;5.80;99.90;;;;;;20973616;28;20037;-76
2022/11/06 10:10:04;;;;;;;18.55;7.13;;;6.00;99.90;;;;;;20914111;28;20029;-76
2022/11/06 10:20:17;;;;;;;16.88;7.22;;;6.30;99.90;;;;;;20912558;28;20033;-76
2022/11/06 10:30:18;;;;;;;16.27;6.53;;;6.40;99.90;;;;;;20911131;28;20029;-76
2022/11/06 10:40:25;;;;;;;16.60;7.35;;;6.60;99.90;;;;;;20950776;28;20391;-77
2022/11/06 10:50:49;;;;;;;18.23;7.93;;;6.80;99.90;;;;;;20879939;28;20046;-77
2022/11/06 11:00:52;;;;;;;14.05;6.75;;;7.10;99.90;;;;;;20828064;28;20140;-76
2022/11/06 11:11:14;;;;;;;12.95;6.55;;;7.20;99.90;;;;;;20844533;28;20527;-77
2022/11/06 11:21:26;;;;;;;15.67;6.53;;;7.30;99.90;;;;;;20909392;28;20064;-77
2022/11/06 11:31:33;;;;;;;15.25;6.38;;;7.50;99.90;;;;;;20898229;28;20527;-76
2022/11/06 11:41:34;;;;;;;13.02;6.88;;;7.60;99.90;;;;;;20897615;28;20033;-76
2022/11/06 11:51:42;;;;;;;15.00;6.17;;;7.90;99.90;;;;;;20871216;28;20519;-76
2022/11/06 12:01:44;;;;;;;24.45;13.40;;;8.10;99.90;;;;;;20843165;28;20030;-76
2022/11/06 12:11:46;;;;;;;13.80;7.40;;;8.40;99.90;;;;;;20852201;28;20033;-77
2022/11/06 12:21:53;;;;;;;11.88;6.32;;;8.10;99.90;;;;;;20905080;28;20041;-77
2022/11/06 12:32:32;;;;;;;12.95;6.82;;;8.00;99.90;;;;;;20880579;28;20488;-76
2022/11/06 12:42:34;;;;;;;11.02;5.93;;;8.10;99.90;;;;;;20855728;28;20033;-76
2022/11/06 12:52:44;;;;;;;9.60;6.00;;;8.30;99.90;;;;;;20913893;28;20037;-76
2022/11/06 13:03:04;;;;;;;32.38;15.13;;;8.10;99.90;;;;;;20920971;28;20029;-76
2022/11/06 13:13:17;;;;;;;17.87;9.93;;;7.70;99.90;;;;;;20930436;28;20075;-76
2022/11/06 13:23:26;;;;;;;9.37;5.50;;;7.40;99.90;;;;;;20999585;28;20040;-76
2022/11/06 13:33:35;;;;;;;9.50;5.43;;;7.40;99.90;;;;;;20930368;28;20033;-77
2022/11/06 13:43:41;;;;;;;8.20;4.47;;;8.30;99.90;;;;;;20959722;28;20059;-77
2022/11/06 13:54:08;;;;;;;10.43;6.00;;;9.70;99.90;;;;;;20916430;28;20040;-76
2022/11/06 14:04:09;;;;;;;10.55;5.82;;;9.10;99.90;;;;;;20913629;28;20087;-76
2022/11/06 14:14:18;;;;;;;20.13;12.10;;;8.60;99.90;;;;;;20867006;28;20030;-77
2022/11/06 14:24:36;;;;;;;10.27;5.85;;;8.30;99.90;;;;;;20830484;28;20034;-77
2022/11/06 14:34:41;;;;;;;10.32;5.60;;;8.10;99.90;;;;;;20849864;28;20434;-77
2022/11/06 14:44:46;;;;;;;10.48;6.72;;;7.70;99.90;;;;;;20894687;28;20041;-76
2022/11/06 14:55:01;;;;;;;13.88;7.07;;;7.70;99.90;;;;;;20829293;28;20030;-77
2022/11/06 15:05:12;;;;;;;20.33;8.52;;;7.80;99.90;;;;;;20828463;28;20041;-76
2022/11/06 15:15:18;;;;;;;13.10;7.77;;;7.60;99.90;;;;;;20881995;28;20128;-76
2022/11/06 15:25:22;;;;;;;23.15;10.85;;;7.20;99.90;;;;;;20912344;28;20040;-77
2022/11/06 15:35:32;;;;;;;13.18;7.63;;;7.00;99.90;;;;;;20928275;28;20526;-77
2022/11/06 15:45:32;;;;;;;14.30;7.57;;;6.90;99.90;;;;;;20967523;28;20052;-76
2022/11/06 15:55:37;;;;;;;10.68;6.65;;;6.90;99.90;;;;;;20992155;28;20040;-77
2022/11/06 16:05:38;;;;;;;10.82;6.35;;;6.80;99.90;;;;;;20988463;28;20032;-76
2022/11/06 16:15:45;;;;;;;;;;;6.70;99.90;;;;;;20873839;28;20067;-76
2022/11/06 16:25:46;;;;;;;11.27;6.70;;;6.60;99.90;;;;;;20830707;28;19913;-76
2022/11/06 16:35:48;;;;;;;;;;;6.60;99.90;;;;;;20858814;28;20029;-76
2022/11/06 16:46:04;;;;;;;8.67;5.50;;;6.70;99.90;;;;;;20921242;28;19916;-76
2022/11/06 16:56:06;;;;;;;12.52;5.95;;;6.60;99.90;;;;;;20894580;28;20404;-76
2022/11/06 17:06:22;;;;;;;10.88;5.47;;;6.60;99.90;;;;;;20837404;28;20037;-76
2022/11/06 17:16:25;;;;;;;8.93;5.25;;;6.50;99.90;;;;;;20899106;28;20033;-75
2022/11/06 17:26:29;;;;;;;12.88;5.40;;;6.40;99.90;;;;;;20923813;28;20468;-75
2022/11/06 17:36:31;;;;;;;10.50;4.90;;;6.40;99.90;;;;;;20948507;28;20032;-77
2022/11/06 17:46:35;;;;;;;10.98;5.53;;;6.40;99.90;;;;;;20937100;28;20075;-77
2022/11/06 17:56:36;;;;;;;9.50;4.70;;;6.40;99.90;;;;;;20923153;28;20032;-77
2022/11/06 18:06:38;;;;;;;10.23;5.07;;;6.50;99.90;;;;;;20917040;28;20035;-77
2022/11/06 18:16:39;;;;;;;;;;;6.50;99.90;;;;;;20896492;28;20121;-77
2022/11/06 18:26:40;;;;;;;17.60;9.98;;;6.50;99.90;;;;;;20881084;28;20383;-78
2022/11/06 18:36:41;;;;;;;11.68;6.22;;;6.60;99.90;;;;;;20896757;28;20090;-77
2022/11/06 18:46:42;;;;;;;11.05;4.75;;;6.60;99.90;;;;;;20982992;28;20028;-78
2022/11/06 18:56:43;;;;;;;10.75;6.10;;;6.50;99.90;;;;;;21008862;28;20028;-78
2022/11/06 19:06:44;;;;;;;25.73;13.77;;;6.50;99.90;;;;;;21005461;22;20037;-75
2022/11/06 19:16:45;;;;;;;17.80;8.60;;;6.60;99.90;;;;;;20876044;28;20033;-75
2022/11/06 19:26:46;;;;;;;17.37;9.63;;;6.60;99.90;;;;;;20829273;28;20047;-75
2022/11/06 19:36:47;;;;;;;18.98;8.30;;;6.50;99.90;;;;;;20844493;28;20503;-77
2022/11/06 19:46:48;;;;;;;9.70;5.40;;;6.50;99.90;;;;;;20857819;28;20048;-76
2022/11/06 19:56:48;;;;;;;16.47;6.77;;;6.50;99.90;;;;;;20878841;28;20294;-75
2022/11/06 20:06:50;;;;;;;13.43;6.30;;;6.40;99.90;;;;;;20908683;28;20060;-76
2022/11/06 20:16:51;;;;;;;13.98;7.85;;;6.50;99.90;;;;;;20908126;28;20288;-76
2022/11/06 20:26:52;;;;;;;13.95;8.70;;;6.50;99.90;;;;;;20907664;28;20098;-76
2022/11/06 20:36:53;;;;;;;17.70;9.67;;;6.60;99.90;;;;;;20909019;28;20118;-75
2022/11/06 20:46:53;;;;;;;16.63;9.65;;;6.60;99.90;;;;;;20908100;28;20107;-75
2022/11/06 20:56:54;;;;;;;15.60;8.17;;;6.70;99.90;;;;;;20890063;28;20033;-77
2022/11/06 21:06:55;;;;;;;18.55;7.97;;;6.50;99.90;;;;;;20887870;28;20068;-77
2022/11/06 21:16:56;;;;;;;14.00;8.13;;;6.60;99.90;;;;;;20918767;28;20037;-77
2022/11/06 21:26:57;;;;;;;16.15;9.32;;;6.70;99.90;;;;;;20919562;28;20465;-77
2022/11/06 21:36:58;;;;;;;16.80;9.63;;;6.60;99.90;;;;;;20918569;28;20438;-77
2022/11/06 21:46:59;;;;;;;19.97;11.30;;;6.70;99.90;;;;;;20917768;28;20279;-77
2022/11/06 21:56:59;;;;;;;19.57;9.73;;;6.80;99.90;;;;;;20875221;28;20120;-77
2022/11/06 22:07:00;;;;;;;13.25;7.35;;;6.90;99.90;;;;;;20850505;28;20363;-77
2022/11/06 22:17:01;;;;;;;18.87;10.40;;;7.00;99.90;;;;;;20916250;28;20025;-77
2022/11/06 22:27:02;;;;;;;;;;;6.90;99.90;;;;;;20919030;28;20028;-76
2022/11/06 22:37:03;;;;;;;18.65;11.38;;;6.90;99.90;;;;;;20896615;28;20409;-77
2022/11/06 22:47:04;;;;;;;21.77;11.68;;;7.00;99.90;;;;;;20914744;28;20025;-76
2022/11/06 22:57:05;;;;;;;16.60;9.97;;;7.00;99.90;;;;;;20912047;28;20040;-76
2022/11/06 23:07:05;;;;;;;21.03;9.90;;;7.00;99.90;;;;;;20910600;28;20299;-76
2022/11/06 23:17:06;;;;;;;19.53;10.60;;;7.00;99.90;;;;;;20909729;28;20439;-76
2022/11/06 23:27:08;;;;;;;20.10;10.53;;;7.00;99.90;;;;;;20909437;28;20032;-76
2022/11/06 23:37:09;;;;;;;19.55;10.38;;;7.10;99.90;;;;;;20909003;28;20040;-76
2022/11/06 23:47:10;;;;;;;18.57;10.73;;;6.90;99.90;;;;;;20908438;28;20029;-76
2022/11/06 23:57:11;;;;;;;21.70;10.10;;;6.80;99.90;;;;;;20907770;28;20029;-76
